sensor_id;sensor_type;location;lat;lon;timestamp;P1;durP1;ratioP1;P2;durP2;ratioP2
55465;SDS011;41329;41.594;23.810;2023-08-31T00:01:47;5.85;;;4.78;;
55465;SDS011;41329;41.594;23.810;2023-08-31T00:04:18;5.25;;;4.75;;
55465;SDS011;41329;41.594;23.810;2023-08-31T00:06:43;5.45;;;4.90;;
55465;SDS011;41329;41.594;23.810;2023-08-31T00:09:11;5.63;;;5.13;;
55465;SDS011;41329;41.594;23.810;2023-08-31T00:11:37;5.95;;;5.43;;
55465;SDS011;41329;41.594;23.810;2023-08-31T00:14:03;5.55;;;5.15;;
55465;SDS011;41329;41.594;23.810;2023-08-31T00:16:29;5.78;;;5.28;;
55465;SDS011;41329;41.594;23.810;2023-08-31T00:18:55;5.50;;;5.10;;
55465;SDS011;41329;41.594;23.810;2023-08-31T00:21:22;5.50;;;5.00;;
55465;SDS011;41329;41.594;23.810;2023-08-31T00:23:47;4.65;;;4.35;;
55465;SDS011;41329;41.594;23.810;2023-08-31T00:26:13;4.78;;;4.40;;
55465;SDS011;41329;41.594;23.810;2023-08-31T00:28:40;4.00;;;3.67;;
55465;SDS011;41329;41.594;23.810;2023-08-31T00:31:10;4.38;;;4.07;;
55465;SDS011;41329;41.594;23.810;2023-08-31T00:33:37;5.63;;;4.65;;
55465;SDS011;41329;41.594;23.810;2023-08-31T00:36:03;4.95;;;4.63;;
55465;SDS011;41329;41.594;23.810;2023-08-31T00:38:30;5.15;;;4.65;;
55465;SDS011;41329;41.594;23.810;2023-08-31T00:40:56;4.93;;;4.53;;
55465;SDS011;41329;41.594;23.810;2023-08-31T00:43:21;4.93;;;4.53;;
55465;SDS011;41329;41.594;23.810;2023-08-31T00:45:51;4.78;;;4.38;;
55465;SDS011;41329;41.594;23.810;2023-08-31T00:48:22;4.40;;;4.10;;
55465;SDS011;41329;41.594;23.810;2023-08-31T00:50:47;4.40;;;4.00;;
55465;SDS011;41329;41.594;23.810;2023-08-31T00:53:13;4.55;;;4.15;;
55465;SDS011;41329;41.594;23.810;2023-08-31T00:55:40;6.07;;;4.35;;
55465;SDS011;41329;41.594;23.810;2023-08-31T00:58:06;4.70;;;4.30;;
55465;SDS011;41329;41.594;23.810;2023-08-31T01:04:01;6.72;;;4.20;;
55465;SDS011;41329;41.594;23.810;2023-08-31T01:14:30;4.90;;;4.40;;
55465;SDS011;41329;41.594;23.810;2023-08-31T01:16:59;4.32;;;3.92;;
55465;SDS011;41329;41.594;23.810;2023-08-31T01:19:34;5.13;;;4.72;;
55465;SDS011;41329;41.594;23.810;2023-08-31T01:22:11;4.40;;;4.07;;
55465;SDS011;41329;41.594;23.810;2023-08-31T01:27:05;4.68;;;4.32;;
55465;SDS011;41329;41.594;23.810;2023-08-31T01:29:32;5.32;;;4.93;;
55465;SDS011;41329;41.594;23.810;2023-08-31T01:31:57;5.38;;;4.97;;
55465;SDS011;41329;41.594;23.810;2023-08-31T01:34:23;5.97;;;5.25;;
55465;SDS011;41329;41.594;23.810;2023-08-31T01:36:53;5.72;;;5.32;;
55465;SDS011;41329;41.594;23.810;2023-08-31T01:41:56;5.43;;;4.80;;
55465;SDS011;41329;41.594;23.810;2023-08-31T01:44:26;4.88;;;4.47;;
55465;SDS011;41329;41.594;23.810;2023-08-31T01:46:57;5.13;;;4.72;;
55465;SDS011;41329;41.594;23.810;2023-08-31T01:49:28;4.78;;;4.35;;
55465;SDS011;41329;41.594;23.810;2023-08-31T01:51:53;4.38;;;4.07;;
55465;SDS011;41329;41.594;23.810;2023-08-31T01:54:18;5.78;;;5.10;;
55465;SDS011;41329;41.594;23.810;2023-08-31T01:56:44;5.35;;;4.95;;
55465;SDS011;41329;41.594;23.810;2023-08-31T01:59:09;5.13;;;4.63;;
55465;SDS011;41329;41.594;23.810;2023-08-31T02:01:34;5.20;;;4.70;;
55465;SDS011;41329;41.594;23.810;2023-08-31T02:04:01;7.32;;;5.18;;
55465;SDS011;41329;41.594;23.810;2023-08-31T02:06:26;6.30;;;5.57;;
55465;SDS011;41329;41.594;23.810;2023-08-31T02:08:52;5.88;;;5.28;;
55465;SDS011;41329;41.594;23.810;2023-08-31T02:11:17;5.18;;;4.82;;
55465;SDS011;41329;41.594;23.810;2023-08-31T02:13:42;16.92;;;7.50;;
55465;SDS011;41329;41.594;23.810;2023-08-31T02:16:08;6.88;;;6.28;;
55465;SDS011;41329;41.594;23.810;2023-08-31T02:18:33;6.53;;;5.65;;
55465;SDS011;41329;41.594;23.810;2023-08-31T02:20:58;6.35;;;5.00;;
55465;SDS011;41329;41.594;23.810;2023-08-31T02:23:24;5.93;;;4.78;;
55465;SDS011;41329;41.594;23.810;2023-08-31T02:25:49;6.05;;;4.30;;
55465;SDS011;41329;41.594;23.810;2023-08-31T02:28:15;5.03;;;4.63;;
55465;SDS011;41329;41.594;23.810;2023-08-31T02:30:40;5.00;;;4.60;;
55465;SDS011;41329;41.594;23.810;2023-08-31T02:33:08;5.15;;;4.72;;
55465;SDS011;41329;41.594;23.810;2023-08-31T02:35:34;4.80;;;4.30;;
55465;SDS011;41329;41.594;23.810;2023-08-31T02:37:59;5.45;;;4.93;;
55465;SDS011;41329;41.594;23.810;2023-08-31T02:40:25;4.90;;;4.50;;
55465;SDS011;41329;41.594;23.810;2023-08-31T02:42:50;4.60;;;4.22;;
55465;SDS011;41329;41.594;23.810;2023-08-31T02:45:17;5.60;;;5.20;;
55465;SDS011;41329;41.594;23.810;2023-08-31T02:47:42;5.53;;;5.03;;
55465;SDS011;41329;41.594;23.810;2023-08-31T02:50:08;7.15;;;5.07;;
55465;SDS011;41329;41.594;23.810;2023-08-31T02:52:33;5.70;;;5.18;;
55465;SDS011;41329;41.594;23.810;2023-08-31T02:54:59;6.63;;;6.03;;
55465;SDS011;41329;41.594;23.810;2023-08-31T02:57:24;5.63;;;5.15;;
55465;SDS011;41329;41.594;23.810;2023-08-31T02:59:50;6.05;;;5.18;;
55465;SDS011;41329;41.594;23.810;2023-08-31T03:02:16;6.20;;;5.70;;
55465;SDS011;41329;41.594;23.810;2023-08-31T03:04:41;10.15;;;5.78;;
55465;SDS011;41329;41.594;23.810;2023-08-31T03:07:06;7.22;;;6.57;;
55465;SDS011;41329;41.594;23.810;2023-08-31T03:09:32;6.20;;;5.72;;
55465;SDS011;41329;41.594;23.810;2023-08-31T03:11:57;11.35;;;5.90;;
55465;SDS011;41329;41.594;23.810;2023-08-31T03:14:23;7.80;;;6.22;;
55465;SDS011;41329;41.594;23.810;2023-08-31T03:16:48;5.97;;;5.50;;
55465;SDS011;41329;41.594;23.810;2023-08-31T03:19:14;5.95;;;5.55;;
55465;SDS011;41329;41.594;23.810;2023-08-31T03:21:39;5.97;;;5.43;;
55465;SDS011;41329;41.594;23.810;2023-08-31T03:24:05;6.15;;;5.68;;
55465;SDS011;41329;41.594;23.810;2023-08-31T03:26:31;5.50;;;5.10;;
55465;SDS011;41329;41.594;23.810;2023-08-31T03:28:56;5.82;;;4.90;;
55465;SDS011;41329;41.594;23.810;2023-08-31T03:31:22;5.72;;;5.22;;
55465;SDS011;41329;41.594;23.810;2023-08-31T03:33:47;8.15;;;5.60;;
55465;SDS011;41329;41.594;23.810;2023-08-31T03:36:13;6.88;;;6.38;;
55465;SDS011;41329;41.594;23.810;2023-08-31T03:38:38;8.45;;;6.40;;
55465;SDS011;41329;41.594;23.810;2023-08-31T03:41:04;7.60;;;5.97;;
55465;SDS011;41329;41.594;23.810;2023-08-31T03:43:30;8.55;;;5.88;;
55465;SDS011;41329;41.594;23.810;2023-08-31T03:45:56;7.57;;;5.10;;
55465;SDS011;41329;41.594;23.810;2023-08-31T03:48:22;6.15;;;5.57;;
55465;SDS011;41329;41.594;23.810;2023-08-31T03:50:49;6.13;;;5.53;;
55465;SDS011;41329;41.594;23.810;2023-08-31T03:53:18;7.07;;;6.07;;
55465;SDS011;41329;41.594;23.810;2023-08-31T03:55:43;5.07;;;4.72;;
55465;SDS011;41329;41.594;23.810;2023-08-31T03:58:09;6.32;;;5.78;;
55465;SDS011;41329;41.594;23.810;2023-08-31T04:00:36;6.43;;;5.90;;
55465;SDS011;41329;41.594;23.810;2023-08-31T04:03:01;5.53;;;5.13;;
55465;SDS011;41329;41.594;23.810;2023-08-31T04:05:28;5.30;;;4.85;;
55465;SDS011;41329;41.594;23.810;2023-08-31T04:07:53;5.70;;;5.20;;
55465;SDS011;41329;41.594;23.810;2023-08-31T04:10:18;5.30;;;4.90;;
55465;SDS011;41329;41.594;23.810;2023-08-31T04:12:44;5.82;;;5.32;;
55465;SDS011;41329;41.594;23.810;2023-08-31T04:15:09;6.20;;;5.70;;
55465;SDS011;41329;41.594;23.810;2023-08-31T04:17:35;6.20;;;5.72;;
55465;SDS011;41329;41.594;23.810;2023-08-31T04:20:00;6.40;;;5.80;;
55465;SDS011;41329;41.594;23.810;2023-08-31T04:22:26;5.47;;;4.97;;
55465;SDS011;41329;41.594;23.810;2023-08-31T04:24:52;6.07;;;4.38;;
55465;SDS011;41329;41.594;23.810;2023-08-31T04:27:18;7.30;;;5.20;;
55465;SDS011;41329;41.594;23.810;2023-08-31T04:29:44;5.43;;;5.00;;
55465;SDS011;41329;41.594;23.810;2023-08-31T04:32:09;5.38;;;4.97;;
55465;SDS011;41329;41.594;23.810;2023-08-31T04:34:34;8.07;;;4.68;;
55465;SDS011;41329;41.594;23.810;2023-08-31T04:37:00;6.03;;;4.85;;
55465;SDS011;41329;41.594;23.810;2023-08-31T04:39:27;13.10;;;11.90;;
55465;SDS011;41329;41.594;23.810;2023-08-31T04:41:52;15.98;;;13.30;;
55465;SDS011;41329;41.594;23.810;2023-08-31T04:44:17;8.73;;;7.82;;
55465;SDS011;41329;41.594;23.810;2023-08-31T04:46:43;12.70;;;6.90;;
55465;SDS011;41329;41.594;23.810;2023-08-31T04:49:08;6.57;;;5.97;;
55465;SDS011;41329;41.594;23.810;2023-08-31T04:51:34;6.10;;;5.57;;
55465;SDS011;41329;41.594;23.810;2023-08-31T04:54:02;8.10;;;6.15;;
55465;SDS011;41329;41.594;23.810;2023-08-31T04:56:31;6.55;;;6.05;;
55465;SDS011;41329;41.594;23.810;2023-08-31T04:58:57;8.43;;;5.40;;
55465;SDS011;41329;41.594;23.810;2023-08-31T05:01:23;9.32;;;5.30;;
55465;SDS011;41329;41.594;23.810;2023-08-31T05:03:48;8.02;;;5.93;;
55465;SDS011;41329;41.594;23.810;2023-08-31T05:06:14;5.95;;;5.45;;
55465;SDS011;41329;41.594;23.810;2023-08-31T05:08:39;4.85;;;4.45;;
55465;SDS011;41329;41.594;23.810;2023-08-31T05:11:04;4.85;;;4.45;;
55465;SDS011;41329;41.594;23.810;2023-08-31T05:13:30;4.60;;;4.20;;
55465;SDS011;41329;41.594;23.810;2023-08-31T05:15:55;4.65;;;4.25;;
55465;SDS011;41329;41.594;23.810;2023-08-31T05:18:21;6.00;;;5.60;;
55465;SDS011;41329;41.594;23.810;2023-08-31T05:20:46;5.20;;;4.80;;
55465;SDS011;41329;41.594;23.810;2023-08-31T05:23:13;5.13;;;4.47;;
55465;SDS011;41329;41.594;23.810;2023-08-31T05:25:42;5.20;;;4.80;;
55465;SDS011;41329;41.594;23.810;2023-08-31T05:28:08;5.53;;;4.63;;
55465;SDS011;41329;41.594;23.810;2023-08-31T05:30:34;6.28;;;5.68;;
55465;SDS011;41329;41.594;23.810;2023-08-31T05:33:00;9.38;;;6.03;;
55465;SDS011;41329;41.594;23.810;2023-08-31T05:35:25;6.15;;;5.07;;
55465;SDS011;41329;41.594;23.810;2023-08-31T05:37:51;8.63;;;5.32;;
55465;SDS011;41329;41.594;23.810;2023-08-31T05:40:16;5.35;;;4.85;;
55465;SDS011;41329;41.594;23.810;2023-08-31T05:42:43;5.90;;;5.15;;
55465;SDS011;41329;41.594;23.810;2023-08-31T05:45:08;5.10;;;4.60;;
55465;SDS011;41329;41.594;23.810;2023-08-31T05:47:34;5.43;;;4.93;;
55465;SDS011;41329;41.594;23.810;2023-08-31T05:50:00;6.85;;;5.47;;
55465;SDS011;41329;41.594;23.810;2023-08-31T05:52:26;11.68;;;6.80;;
55465;SDS011;41329;41.594;23.810;2023-08-31T05:54:51;5.90;;;5.30;;
55465;SDS011;41329;41.594;23.810;2023-08-31T05:57:19;6.55;;;5.80;;
55465;SDS011;41329;41.594;23.810;2023-08-31T05:59:46;9.48;;;6.63;;
55465;SDS011;41329;41.594;23.810;2023-08-31T06:02:12;7.93;;;6.35;;
55465;SDS011;41329;41.594;23.810;2023-08-31T06:04:38;12.57;;;9.73;;
55465;SDS011;41329;41.594;23.810;2023-08-31T06:07:03;7.38;;;6.68;;
55465;SDS011;41329;41.594;23.810;2023-08-31T06:09:28;9.45;;;6.93;;
55465;SDS011;41329;41.594;23.810;2023-08-31T06:11:54;9.40;;;8.05;;
55465;SDS011;41329;41.594;23.810;2023-08-31T06:14:19;11.40;;;10.38;;
55465;SDS011;41329;41.594;23.810;2023-08-31T06:16:45;9.38;;;8.38;;
55465;SDS011;41329;41.594;23.810;2023-08-31T06:19:10;10.85;;;7.15;;
55465;SDS011;41329;41.594;23.810;2023-08-31T06:21:36;6.25;;;5.78;;
55465;SDS011;41329;41.594;23.810;2023-08-31T06:24:01;7.50;;;6.18;;
55465;SDS011;41329;41.594;23.810;2023-08-31T06:26:28;9.02;;;5.97;;
55465;SDS011;41329;41.594;23.810;2023-08-31T06:28:54;10.05;;;7.10;;
55465;SDS011;41329;41.594;23.810;2023-08-31T06:31:20;8.70;;;5.85;;
55465;SDS011;41329;41.594;23.810;2023-08-31T06:33:46;7.07;;;6.18;;
55465;SDS011;41329;41.594;23.810;2023-08-31T06:36:11;6.80;;;5.47;;
55465;SDS011;41329;41.594;23.810;2023-08-31T06:38:37;7.53;;;5.32;;
55465;SDS011;41329;41.594;23.810;2023-08-31T06:41:02;7.18;;;6.07;;
55465;SDS011;41329;41.594;23.810;2023-08-31T06:43:28;6.72;;;5.55;;
55465;SDS011;41329;41.594;23.810;2023-08-31T06:45:53;6.25;;;5.38;;
55465;SDS011;41329;41.594;23.810;2023-08-31T06:48:19;5.60;;;4.28;;
55465;SDS011;41329;41.594;23.810;2023-08-31T06:50:44;7.50;;;5.28;;
55465;SDS011;41329;41.594;23.810;2023-08-31T06:53:10;6.68;;;4.55;;
55465;SDS011;41329;41.594;23.810;2023-08-31T06:55:35;5.78;;;4.75;;
55465;SDS011;41329;41.594;23.810;2023-08-31T06:58:01;5.75;;;4.30;;
55465;SDS011;41329;41.594;23.810;2023-08-31T07:00:27;5.10;;;4.20;;
55465;SDS011;41329;41.594;23.810;2023-08-31T07:02:53;4.15;;;3.85;;
55465;SDS011;41329;41.594;23.810;2023-08-31T07:05:18;4.95;;;3.38;;
55465;SDS011;41329;41.594;23.810;2023-08-31T07:07:50;3.88;;;3.53;;
55465;SDS011;41329;41.594;23.810;2023-08-31T07:10:16;5.45;;;3.45;;
55465;SDS011;41329;41.594;23.810;2023-08-31T07:12:42;6.40;;;4.10;;
55465;SDS011;41329;41.594;23.810;2023-08-31T07:15:07;4.25;;;3.72;;
55465;SDS011;41329;41.594;23.810;2023-08-31T07:17:33;6.10;;;3.35;;
55465;SDS011;41329;41.594;23.810;2023-08-31T07:19:58;5.10;;;3.75;;
55465;SDS011;41329;41.594;23.810;2023-08-31T07:22:24;4.60;;;3.58;;
55465;SDS011;41329;41.594;23.810;2023-08-31T07:24:49;11.68;;;3.85;;
55465;SDS011;41329;41.594;23.810;2023-08-31T07:27:15;4.05;;;3.65;;
55465;SDS011;41329;41.594;23.810;2023-08-31T07:29:40;3.67;;;3.38;;
55465;SDS011;41329;41.594;23.810;2023-08-31T07:32:06;6.20;;;3.50;;
55465;SDS011;41329;41.594;23.810;2023-08-31T07:34:31;3.45;;;3.10;;
55465;SDS011;41329;41.594;23.810;2023-08-31T07:36:56;3.88;;;3.42;;
55465;SDS011;41329;41.594;23.810;2023-08-31T07:39:22;5.28;;;3.08;;
55465;SDS011;41329;41.594;23.810;2023-08-31T07:41:47;4.32;;;2.67;;
55465;SDS011;41329;41.594;23.810;2023-08-31T07:44:13;3.65;;;3.30;;
55465;SDS011;41329;41.594;23.810;2023-08-31T07:46:38;3.20;;;2.70;;
55465;SDS011;41329;41.594;23.810;2023-08-31T07:49:03;3.03;;;2.78;;
55465;SDS011;41329;41.594;23.810;2023-08-31T07:51:29;3.40;;;2.85;;
55465;SDS011;41329;41.594;23.810;2023-08-31T07:53:54;3.40;;;3.10;;
55465;SDS011;41329;41.594;23.810;2023-08-31T07:56:20;3.83;;;3.30;;
55465;SDS011;41329;41.594;23.810;2023-08-31T07:58:48;6.38;;;3.17;;
55465;SDS011;41329;41.594;23.810;2023-08-31T08:01:13;4.53;;;2.70;;
55465;SDS011;41329;41.594;23.810;2023-08-31T08:03:39;3.65;;;3.22;;
55465;SDS011;41329;41.594;23.810;2023-08-31T08:06:04;4.63;;;3.10;;
55465;SDS011;41329;41.594;23.810;2023-08-31T08:08:29;4.43;;;3.03;;
55465;SDS011;41329;41.594;23.810;2023-08-31T08:10:55;9.75;;;3.10;;
55465;SDS011;41329;41.594;23.810;2023-08-31T08:13:21;4.53;;;2.88;;
55465;SDS011;41329;41.594;23.810;2023-08-31T08:15:46;3.10;;;2.80;;
55465;SDS011;41329;41.594;23.810;2023-08-31T08:18:12;3.42;;;2.92;;
55465;SDS011;41329;41.594;23.810;2023-08-31T08:20:38;3.28;;;2.70;;
55465;SDS011;41329;41.594;23.810;2023-08-31T08:23:03;2.58;;;2.38;;
55465;SDS011;41329;41.594;23.810;2023-08-31T08:25:30;6.88;;;4.18;;
55465;SDS011;41329;41.594;23.810;2023-08-31T08:27:55;3.10;;;2.75;;
55465;SDS011;41329;41.594;23.810;2023-08-31T08:30:21;5.13;;;3.08;;
55465;SDS011;41329;41.594;23.810;2023-08-31T08:32:46;4.60;;;4.18;;
55465;SDS011;41329;41.594;23.810;2023-08-31T08:35:11;4.05;;;3.17;;
55465;SDS011;41329;41.594;23.810;2023-08-31T08:37:37;5.88;;;2.40;;
55465;SDS011;41329;41.594;23.810;2023-08-31T08:40:02;3.22;;;2.88;;
55465;SDS011;41329;41.594;23.810;2023-08-31T08:42:32;5.03;;;2.50;;
55465;SDS011;41329;41.594;23.810;2023-08-31T08:45:03;2.60;;;1.80;;
55465;SDS011;41329;41.594;23.810;2023-08-31T08:47:31;4.88;;;1.98;;
55465;SDS011;41329;41.594;23.810;2023-08-31T08:49:58;2.35;;;2.13;;
55465;SDS011;41329;41.594;23.810;2023-08-31T08:52:24;3.47;;;2.55;;
55465;SDS011;41329;41.594;23.810;2023-08-31T08:54:50;2.63;;;2.13;;
55465;SDS011;41329;41.594;23.810;2023-08-31T08:57:17;2.45;;;2.08;;
55465;SDS011;41329;41.594;23.810;2023-08-31T08:59:42;2.65;;;2.40;;
55465;SDS011;41329;41.594;23.810;2023-08-31T09:02:08;3.42;;;3.13;;
55465;SDS011;41329;41.594;23.810;2023-08-31T09:04:35;2.67;;;2.25;;
55465;SDS011;41329;41.594;23.810;2023-08-31T09:07:01;3.15;;;2.40;;
55465;SDS011;41329;41.594;23.810;2023-08-31T09:09:27;2.13;;;1.92;;
55465;SDS011;41329;41.594;23.810;2023-08-31T09:11:53;2.10;;;1.90;;
55465;SDS011;41329;41.594;23.810;2023-08-31T09:14:20;3.65;;;1.85;;
55465;SDS011;41329;41.594;23.810;2023-08-31T09:16:49;3.75;;;1.90;;
55465;SDS011;41329;41.594;23.810;2023-08-31T09:19:22;2.95;;;2.50;;
55465;SDS011;41329;41.594;23.810;2023-08-31T09:21:50;2.88;;;1.80;;
55465;SDS011;41329;41.594;23.810;2023-08-31T09:24:16;2.10;;;1.70;;
55465;SDS011;41329;41.594;23.810;2023-08-31T09:26:46;2.33;;;1.98;;
55465;SDS011;41329;41.594;23.810;2023-08-31T09:29:13;2.58;;;1.98;;
55465;SDS011;41329;41.594;23.810;2023-08-31T09:31:42;2.30;;;1.80;;
55465;SDS011;41329;41.594;23.810;2023-08-31T09:34:09;3.33;;;1.92;;
55465;SDS011;41329;41.594;23.810;2023-08-31T09:36:34;3.45;;;1.90;;
55465;SDS011;41329;41.594;23.810;2023-08-31T09:39:01;2.47;;;1.60;;
55465;SDS011;41329;41.594;23.810;2023-08-31T09:41:27;2.58;;;1.90;;
55465;SDS011;41329;41.594;23.810;2023-08-31T09:43:52;2.20;;;1.77;;
55465;SDS011;41329;41.594;23.810;2023-08-31T09:46:18;2.17;;;1.75;;
55465;SDS011;41329;41.594;23.810;2023-08-31T09:48:45;1.75;;;1.65;;
55465;SDS011;41329;41.594;23.810;2023-08-31T09:51:11;2.83;;;1.83;;
55465;SDS011;41329;41.594;23.810;2023-08-31T09:53:39;2.53;;;2.17;;
55465;SDS011;41329;41.594;23.810;2023-08-31T09:56:07;3.28;;;2.20;;
55465;SDS011;41329;41.594;23.810;2023-08-31T09:58:38;2.85;;;1.80;;
55465;SDS011;41329;41.594;23.810;2023-08-31T10:01:03;1.75;;;1.58;;
55465;SDS011;41329;41.594;23.810;2023-08-31T10:03:30;1.63;;;1.50;;
55465;SDS011;41329;41.594;23.810;2023-08-31T10:05:56;2.30;;;1.80;;
55465;SDS011;41329;41.594;23.810;2023-08-31T10:08:24;2.28;;;1.80;;
55465;SDS011;41329;41.594;23.810;2023-08-31T10:10:51;2.42;;;2.15;;
55465;SDS011;41329;41.594;23.810;2023-08-31T10:13:18;2.67;;;1.73;;
55465;SDS011;41329;41.594;23.810;2023-08-31T10:15:46;2.70;;;2.20;;
55465;SDS011;41329;41.594;23.810;2023-08-31T10:18:13;2.88;;;2.13;;
55465;SDS011;41329;41.594;23.810;2023-08-31T10:20:41;2.60;;;1.95;;
55465;SDS011;41329;41.594;23.810;2023-08-31T10:23:09;2.28;;;2.08;;
55465;SDS011;41329;41.594;23.810;2023-08-31T10:31:00;2.22;;;1.70;;
55465;SDS011;41329;41.594;23.810;2023-08-31T10:36:15;1.98;;;1.77;;
55465;SDS011;41329;41.594;23.810;2023-08-31T10:43:46;1.92;;;1.70;;
55465;SDS011;41329;41.594;23.810;2023-08-31T10:46:19;3.40;;;2.60;;
55465;SDS011;41329;41.594;23.810;2023-08-31T10:48:57;1.58;;;1.48;;
55465;SDS011;41329;41.594;23.810;2023-08-31T10:51:35;2.10;;;1.90;;
55465;SDS011;41329;41.594;23.810;2023-08-31T10:54:05;2.75;;;1.90;;
55465;SDS011;41329;41.594;23.810;2023-08-31T11:02:10;2.00;;;1.73;;
55465;SDS011;41329;41.594;23.810;2023-08-31T11:04:54;2.45;;;1.83;;
55465;SDS011;41329;41.594;23.810;2023-08-31T11:07:26;1.70;;;1.60;;
55465;SDS011;41329;41.594;23.810;2023-08-31T11:09:52;1.90;;;1.58;;
55465;SDS011;41329;41.594;23.810;2023-08-31T11:12:32;2.90;;;1.85;;
55465;SDS011;41329;41.594;23.810;2023-08-31T11:14:58;2.50;;;1.80;;
55465;SDS011;41329;41.594;23.810;2023-08-31T11:17:23;2.28;;;1.92;;
55465;SDS011;41329;41.594;23.810;2023-08-31T11:19:49;2.10;;;1.42;;
55465;SDS011;41329;41.594;23.810;2023-08-31T11:22:14;2.28;;;1.88;;
55465;SDS011;41329;41.594;23.810;2023-08-31T11:24:40;2.30;;;2.10;;
55465;SDS011;41329;41.594;23.810;2023-08-31T11:27:08;2.60;;;1.50;;
55465;SDS011;41329;41.594;23.810;2023-08-31T11:29:38;2.08;;;1.70;;
55465;SDS011;41329;41.594;23.810;2023-08-31T11:32:08;2.28;;;1.83;;
55465;SDS011;41329;41.594;23.810;2023-08-31T11:34:34;2.70;;;1.95;;
55465;SDS011;41329;41.594;23.810;2023-08-31T11:37:01;3.67;;;2.22;;
55465;SDS011;41329;41.594;23.810;2023-08-31T11:39:27;4.90;;;4.50;;
55465;SDS011;41329;41.594;23.810;2023-08-31T11:41:53;2.17;;;1.80;;
55465;SDS011;41329;41.594;23.810;2023-08-31T11:44:19;2.10;;;1.90;;
55465;SDS011;41329;41.594;23.810;2023-08-31T11:46:46;1.67;;;1.42;;
55465;SDS011;41329;41.594;23.810;2023-08-31T11:49:15;1.60;;;1.50;;
55465;SDS011;41329;41.594;23.810;2023-08-31T11:51:47;2.10;;;1.67;;
55465;SDS011;41329;41.594;23.810;2023-08-31T11:54:16;2.85;;;2.05;;
55465;SDS011;41329;41.594;23.810;2023-08-31T11:56:42;2.38;;;2.17;;
55465;SDS011;41329;41.594;23.810;2023-08-31T11:59:12;2.25;;;1.60;;
55465;SDS011;41329;41.594;23.810;2023-08-31T12:01:40;2.78;;;2.03;;
55465;SDS011;41329;41.594;23.810;2023-08-31T12:04:10;2.78;;;1.90;;
55465;SDS011;41329;41.594;23.810;2023-08-31T12:06:48;1.92;;;1.73;;
55465;SDS011;41329;41.594;23.810;2023-08-31T12:09:15;2.72;;;2.30;;
55465;SDS011;41329;41.594;23.810;2023-08-31T12:11:40;3.30;;;2.70;;
55465;SDS011;41329;41.594;23.810;2023-08-31T12:14:22;2.42;;;2.00;;
55465;SDS011;41329;41.594;23.810;2023-08-31T12:16:48;2.53;;;2.00;;
55465;SDS011;41329;41.594;23.810;2023-08-31T12:19:15;2.03;;;1.80;;
55465;SDS011;41329;41.594;23.810;2023-08-31T12:21:41;3.20;;;1.90;;
55465;SDS011;41329;41.594;23.810;2023-08-31T12:24:08;2.45;;;1.88;;
55465;SDS011;41329;41.594;23.810;2023-08-31T12:26:34;3.25;;;1.98;;
55465;SDS011;41329;41.594;23.810;2023-08-31T12:29:00;1.65;;;1.55;;
55465;SDS011;41329;41.594;23.810;2023-08-31T12:31:25;2.42;;;2.20;;
55465;SDS011;41329;41.594;23.810;2023-08-31T12:33:51;3.03;;;2.13;;
55465;SDS011;41329;41.594;23.810;2023-08-31T12:36:16;9.48;;;2.88;;
55465;SDS011;41329;41.594;23.810;2023-08-31T12:38:42;2.50;;;2.30;;
55465;SDS011;41329;41.594;23.810;2023-08-31T12:41:07;2.08;;;1.98;;
55465;SDS011;41329;41.594;23.810;2023-08-31T12:43:33;2.05;;;1.85;;
55465;SDS011;41329;41.594;23.810;2023-08-31T12:45:59;2.05;;;1.75;;
55465;SDS011;41329;41.594;23.810;2023-08-31T12:48:25;1.63;;;1.52;;
55465;SDS011;41329;41.594;23.810;2023-08-31T12:50:51;2.38;;;1.83;;
55465;SDS011;41329;41.594;23.810;2023-08-31T12:53:18;3.20;;;2.17;;
55465;SDS011;41329;41.594;23.810;2023-08-31T12:55:45;1.92;;;1.63;;
55465;SDS011;41329;41.594;23.810;2023-08-31T12:58:11;2.30;;;1.98;;
55465;SDS011;41329;41.594;23.810;2023-08-31T13:00:36;2.35;;;1.85;;
55465;SDS011;41329;41.594;23.810;2023-08-31T13:03:01;1.70;;;1.50;;
55465;SDS011;41329;41.594;23.810;2023-08-31T13:05:28;2.92;;;2.15;;
55465;SDS011;41329;41.594;23.810;2023-08-31T13:07:54;2.67;;;1.98;;
55465;SDS011;41329;41.594;23.810;2023-08-31T13:10:19;2.38;;;1.63;;
55465;SDS011;41329;41.594;23.810;2023-08-31T13:12:45;3.03;;;2.35;;
55465;SDS011;41329;41.594;23.810;2023-08-31T13:15:10;2.25;;;2.05;;
55465;SDS011;41329;41.594;23.810;2023-08-31T13:17:36;2.15;;;1.67;;
55465;SDS011;41329;41.594;23.810;2023-08-31T13:20:01;2.33;;;2.13;;
55465;SDS011;41329;41.594;23.810;2023-08-31T13:22:28;2.45;;;1.58;;
55465;SDS011;41329;41.594;23.810;2023-08-31T13:24:54;2.30;;;2.10;;
55465;SDS011;41329;41.594;23.810;2023-08-31T13:27:19;1.90;;;1.70;;
55465;SDS011;41329;41.594;23.810;2023-08-31T13:29:45;2.30;;;1.63;;
55465;SDS011;41329;41.594;23.810;2023-08-31T13:32:10;2.08;;;1.88;;
55465;SDS011;41329;41.594;23.810;2023-08-31T13:34:36;5.95;;;2.33;;
55465;SDS011;41329;41.594;23.810;2023-08-31T13:37:04;2.60;;;2.08;;
55465;SDS011;41329;41.594;23.810;2023-08-31T13:39:30;2.35;;;1.70;;
55465;SDS011;41329;41.594;23.810;2023-08-31T13:41:56;2.70;;;2.50;;
55465;SDS011;41329;41.594;23.810;2023-08-31T13:44:22;3.63;;;1.90;;
55465;SDS011;41329;41.594;23.810;2023-08-31T13:46:47;2.53;;;2.00;;
55465;SDS011;41329;41.594;23.810;2023-08-31T13:49:14;5.10;;;2.20;;
55465;SDS011;41329;41.594;23.810;2023-08-31T13:51:40;3.80;;;2.08;;
55465;SDS011;41329;41.594;23.810;2023-08-31T13:54:05;2.63;;;2.22;;
55465;SDS011;41329;41.594;23.810;2023-08-31T13:56:32;2.08;;;1.98;;
55465;SDS011;41329;41.594;23.810;2023-08-31T13:58:58;2.78;;;2.58;;
55465;SDS011;41329;41.594;23.810;2023-08-31T14:01:24;3.25;;;2.22;;
55465;SDS011;41329;41.594;23.810;2023-08-31T14:03:49;3.08;;;2.03;;
55465;SDS011;41329;41.594;23.810;2023-08-31T14:06:15;2.47;;;1.65;;
55465;SDS011;41329;41.594;23.810;2023-08-31T14:08:40;2.88;;;1.77;;
55465;SDS011;41329;41.594;23.810;2023-08-31T14:11:06;2.03;;;1.80;;
55465;SDS011;41329;41.594;23.810;2023-08-31T14:13:32;2.75;;;2.30;;
55465;SDS011;41329;41.594;23.810;2023-08-31T14:15:57;2.30;;;2.00;;
55465;SDS011;41329;41.594;23.810;2023-08-31T14:18:23;1.92;;;1.70;;
55465;SDS011;41329;41.594;23.810;2023-08-31T14:20:50;2.35;;;2.10;;
55465;SDS011;41329;41.594;23.810;2023-08-31T14:23:16;2.33;;;2.13;;
55465;SDS011;41329;41.594;23.810;2023-08-31T14:25:41;2.10;;;1.90;;
55465;SDS011;41329;41.594;23.810;2023-08-31T14:28:06;2.78;;;1.98;;
55465;SDS011;41329;41.594;23.810;2023-08-31T14:30:32;2.40;;;1.83;;
55465;SDS011;41329;41.594;23.810;2023-08-31T14:33:00;3.53;;;2.42;;
55465;SDS011;41329;41.594;23.810;2023-08-31T14:35:25;3.00;;;1.75;;
55465;SDS011;41329;41.594;23.810;2023-08-31T14:37:52;2.40;;;1.83;;
55465;SDS011;41329;41.594;23.810;2023-08-31T14:40:17;2.28;;;2.08;;
55465;SDS011;41329;41.594;23.810;2023-08-31T14:42:43;3.10;;;2.28;;
55465;SDS011;41329;41.594;23.810;2023-08-31T14:45:08;7.13;;;2.10;;
55465;SDS011;41329;41.594;23.810;2023-08-31T14:47:34;3.70;;;2.13;;
55465;SDS011;41329;41.594;23.810;2023-08-31T14:49:59;3.25;;;1.70;;
55465;SDS011;41329;41.594;23.810;2023-08-31T14:52:24;3.78;;;2.38;;
55465;SDS011;41329;41.594;23.810;2023-08-31T14:54:50;3.88;;;2.08;;
55465;SDS011;41329;41.594;23.810;2023-08-31T14:57:15;2.08;;;1.88;;
55465;SDS011;41329;41.594;23.810;2023-08-31T14:59:40;1.98;;;1.80;;
55465;SDS011;41329;41.594;23.810;2023-08-31T15:02:07;2.15;;;2.00;;
55465;SDS011;41329;41.594;23.810;2023-08-31T15:04:32;3.40;;;2.25;;